Terminal Aerodrome Forecast
Issued by NWS

Home | Current Version | Previous Version | Text Only | Print | Product List | Glossary On
Versions: 1 2 3 4 5 6 7 8 9 10 11 12 13 14 15 16 17 18 19 20 21 22 23 24 25 26 27 28 29 30 31 32 33 34 35
571
FTUS43 KDVN 271547 AAB
TAFBRL
TAF AMD
KBRL 271547Z 2716/2812 03005KT 4SM -DZ BR OVC005
      TEMPO 2716/2719 3SM -RA BR OVC004
     FM271900 04006KT 5SM -RA BR OVC008
     FM272000 36006KT P6SM OVC012
     FM280400 02004KT 2SM BR OVC008=

USA.gov is the U.S. government's official web portal to all federal, state and local government web resources and services.